sensor_id;sensor_type;location;lat;lon;timestamp;temperature;humidity
42145;DHT22;27813;43.516;11.890;2022-12-18T00:01:58;5.20;96.50
42145;DHT22;27813;43.516;11.890;2022-12-18T00:06:06;5.30;96.80
42145;DHT22;27813;43.516;11.890;2022-12-18T00:10:10;5.40;96.90
42145;DHT22;27813;43.516;11.890;2022-12-18T00:14:20;5.40;97.00
42145;DHT22;27813;43.516;11.890;2022-12-18T00:18:24;5.40;96.90
42145;DHT22;27813;43.516;11.890;2022-12-18T00:22:28;5.40;97.10
42145;DHT22;27813;43.516;11.890;2022-12-18T00:26:33;5.50;97.30
42145;DHT22;27813;43.516;11.890;2022-12-18T05:34:23;2.90;95.20
42145;DHT22;27813;43.516;11.890;2022-12-18T05:38:28;2.70;95.00
42145;DHT22;27813;43.516;11.890;2022-12-18T05:42:32;2.60;95.20
42145;DHT22;27813;43.516;11.890;2022-12-18T05:46:36;2.80;95.90
42145;DHT22;27813;43.516;11.890;2022-12-18T05:50:44;2.90;96.10
42145;DHT22;27813;43.516;11.890;2022-12-18T05:54:51;2.90;96.00
42145;DHT22;27813;43.516;11.890;2022-12-18T05:58:55;2.80;96.00
42145;DHT22;27813;43.516;11.890;2022-12-18T06:03:00;2.80;95.80
42145;DHT22;27813;43.516;11.890;2022-12-18T06:07:04;2.70;96.20
42145;DHT22;27813;43.516;11.890;2022-12-18T06:11:08;2.90;96.40
42145;DHT22;27813;43.516;11.890;2022-12-18T06:15:12;2.90;96.30
42145;DHT22;27813;43.516;11.890;2022-12-18T06:19:16;2.90;96.20
42145;DHT22;27813;43.516;11.890;2022-12-18T06:23:20;2.90;96.10
42145;DHT22;27813;43.516;11.890;2022-12-18T06:27:24;2.70;95.80
42145;DHT22;27813;43.516;11.890;2022-12-18T06:31:28;2.60;95.90
42145;DHT22;27813;43.516;11.890;2022-12-18T06:35:33;2.60;95.90
42145;DHT22;27813;43.516;11.890;2022-12-18T06:39:37;2.50;96.10
42145;DHT22;27813;43.516;11.890;2022-12-18T06:43:41;2.60;96.20
42145;DHT22;27813;43.516;11.890;2022-12-18T06:47:46;2.60;96.00
42145;DHT22;27813;43.516;11.890;2022-12-18T06:51:50;2.60;96.00
42145;DHT22;27813;43.516;11.890;2022-12-18T06:56:05;2.70;96.30
42145;DHT22;27813;43.516;11.890;2022-12-18T07:00:13;2.60;96.00
42145;DHT22;27813;43.516;11.890;2022-12-18T07:04:17;2.60;96.00
42145;DHT22;27813;43.516;11.890;2022-12-18T07:08:21;2.60;96.00
42145;DHT22;27813;43.516;11.890;2022-12-18T07:12:27;2.50;95.90
42145;DHT22;27813;43.516;11.890;2022-12-18T07:16:31;2.40;95.90
42145;DHT22;27813;43.516;11.890;2022-12-18T07:20:35;2.40;96.00
42145;DHT22;27813;43.516;11.890;2022-12-18T07:24:39;2.40;96.10
42145;DHT22;27813;43.516;11.890;2022-12-18T07:28:43;2.50;96.30
42145;DHT22;27813;43.516;11.890;2022-12-18T07:32:47;2.60;96.40
42145;DHT22;27813;43.516;11.890;2022-12-18T07:36:51;2.70;96.50
42145;DHT22;27813;43.516;11.890;2022-12-18T07:41:04;2.80;96.70
42145;DHT22;27813;43.516;11.890;2022-12-18T07:45:12;3.00;96.90
42145;DHT22;27813;43.516;11.890;2022-12-18T07:49:16;3.10;96.90
42145;DHT22;27813;43.516;11.890;2022-12-18T07:53:20;3.30;97.10
42145;DHT22;27813;43.516;11.890;2022-12-18T07:57:24;3.40;97.20
42145;DHT22;27813;43.516;11.890;2022-12-18T08:01:48;3.50;97.30
42145;DHT22;27813;43.516;11.890;2022-12-18T08:05:52;3.60;97.20
42145;DHT22;27813;43.516;11.890;2022-12-18T08:10:01;3.70;97.10
42145;DHT22;27813;43.516;11.890;2022-12-18T08:14:06;3.70;97.10
42145;DHT22;27813;43.516;11.890;2022-12-18T08:18:10;3.90;97.30
42145;DHT22;27813;43.516;11.890;2022-12-18T08:22:16;4.00;97.30
42145;DHT22;27813;43.516;11.890;2022-12-18T08:26:21;4.10;97.30
42145;DHT22;27813;43.516;11.890;2022-12-18T08:30:25;4.30;97.40
42145;DHT22;27813;43.516;11.890;2022-12-18T08:34:29;4.40;97.60
42145;DHT22;27813;43.516;11.890;2022-12-18T08:38:33;4.50;97.50
42145;DHT22;27813;43.516;11.890;2022-12-18T08:42:37;4.60;97.40
42145;DHT22;27813;43.516;11.890;2022-12-18T08:47:00;4.70;97.40
42145;DHT22;27813;43.516;11.890;2022-12-18T08:51:04;4.80;97.40
42145;DHT22;27813;43.516;11.890;2022-12-18T08:55:09;4.90;97.40
42145;DHT22;27813;43.516;11.890;2022-12-18T08:59:14;5.00;97.40
42145;DHT22;27813;43.516;11.890;2022-12-18T09:03:24;5.20;97.30
42145;DHT22;27813;43.516;11.890;2022-12-18T09:07:30;5.20;97.10
42145;DHT22;27813;43.516;11.890;2022-12-18T09:11:38;5.30;97.30
42145;DHT22;27813;43.516;11.890;2022-12-18T09:19:48;5.40;97.20
42145;DHT22;27813;43.516;11.890;2022-12-18T09:23:55;5.50;97.20
42145;DHT22;27813;43.516;11.890;2022-12-18T09:28:10;5.50;97.30
42145;DHT22;27813;43.516;11.890;2022-12-18T09:32:18;5.70;97.30
42145;DHT22;27813;43.516;11.890;2022-12-18T09:36:27;5.70;97.40
42145;DHT22;27813;43.516;11.890;2022-12-18T09:40:36;5.90;97.50
42145;DHT22;27813;43.516;11.890;2022-12-18T09:44:53;5.90;97.60
42145;DHT22;27813;43.516;11.890;2022-12-18T09:49:02;6.00;97.60
42145;DHT22;27813;43.516;11.890;2022-12-18T09:53:16;6.20;97.60
42145;DHT22;27813;43.516;11.890;2022-12-18T09:57:25;6.30;97.60
42145;DHT22;27813;43.516;11.890;2022-12-18T10:01:32;6.40;97.60
42145;DHT22;27813;43.516;11.890;2022-12-18T10:10:48;6.60;97.70
42145;DHT22;27813;43.516;11.890;2022-12-18T10:28:23;6.90;97.60
42145;DHT22;27813;43.516;11.890;2022-12-18T10:32:30;7.00;97.40
42145;DHT22;27813;43.516;11.890;2022-12-18T10:36:34;7.10;97.30
42145;DHT22;27813;43.516;11.890;2022-12-18T10:40:57;7.20;97.40
42145;DHT22;27813;43.516;11.890;2022-12-18T10:45:16;7.30;97.50
42145;DHT22;27813;43.516;11.890;2022-12-18T10:49:31;7.50;97.50
42145;DHT22;27813;43.516;11.890;2022-12-18T10:53:40;7.70;97.50
42145;DHT22;27813;43.516;11.890;2022-12-18T10:57:51;7.90;97.50
42145;DHT22;27813;43.516;11.890;2022-12-18T11:01:58;8.00;97.40
42145;DHT22;27813;43.516;11.890;2022-12-18T11:06:24;8.20;97.10
42145;DHT22;27813;43.516;11.890;2022-12-18T11:10:36;8.30;96.80
42145;DHT22;27813;43.516;11.890;2022-12-18T11:18:50;8.50;96.40
42145;DHT22;27813;43.516;11.890;2022-12-18T11:23:04;8.70;96.30
42145;DHT22;27813;43.516;11.890;2022-12-18T11:27:17;8.70;96.10
42145;DHT22;27813;43.516;11.890;2022-12-18T11:31:25;8.80;96.20
42145;DHT22;27813;43.516;11.890;2022-12-18T11:40:03;8.90;96.00
42145;DHT22;27813;43.516;11.890;2022-12-18T11:44:13;9.00;96.10
42145;DHT22;27813;43.516;11.890;2022-12-18T11:48:36;9.10;96.10
42145;DHT22;27813;43.516;11.890;2022-12-18T11:52:43;9.10;96.10
42145;DHT22;27813;43.516;11.890;2022-12-18T11:56:49;9.10;96.10
42145;DHT22;27813;43.516;11.890;2022-12-18T12:01:12;9.10;96.00
42145;DHT22;27813;43.516;11.890;2022-12-18T12:05:46;9.20;96.10
42145;DHT22;27813;43.516;11.890;2022-12-18T12:19:01;9.50;96.10
42145;DHT22;27813;43.516;11.890;2022-12-18T12:27:36;9.50;96.10
42145;DHT22;27813;43.516;11.890;2022-12-18T12:36:37;9.60;96.20
42145;DHT22;27813;43.516;11.890;2022-12-18T12:40:59;9.60;96.20
42145;DHT22;27813;43.516;11.890;2022-12-18T12:45:13;9.60;96.20
42145;DHT22;27813;43.516;11.890;2022-12-18T12:49:26;9.60;95.90
42145;DHT22;27813;43.516;11.890;2022-12-18T12:53:35;9.60;96.00
42145;DHT22;27813;43.516;11.890;2022-12-18T12:58:04;9.50;96.10
42145;DHT22;27813;43.516;11.890;2022-12-18T13:02:47;9.60;96.00
42145;DHT22;27813;43.516;11.890;2022-12-18T13:07:15;9.60;96.00
42145;DHT22;27813;43.516;11.890;2022-12-18T13:11:41;9.60;95.90
42145;DHT22;27813;43.516;11.890;2022-12-18T13:16:06;9.50;95.90
42145;DHT22;27813;43.516;11.890;2022-12-18T13:20:14;9.50;95.80
42145;DHT22;27813;43.516;11.890;2022-12-18T13:24:27;9.50;95.80
42145;DHT22;27813;43.516;11.890;2022-12-18T13:41:37;9.40;95.80
42145;DHT22;27813;43.516;11.890;2022-12-18T13:45:42;9.40;95.80
42145;DHT22;27813;43.516;11.890;2022-12-18T13:49:51;9.40;95.70
42145;DHT22;27813;43.516;11.890;2022-12-18T13:54:00;9.30;95.60
42145;DHT22;27813;43.516;11.890;2022-12-18T13:58:06;9.30;95.70
42145;DHT22;27813;43.516;11.890;2022-12-18T14:02:15;9.30;95.70
42145;DHT22;27813;43.516;11.890;2022-12-18T14:06:21;9.30;95.80
42145;DHT22;27813;43.516;11.890;2022-12-18T14:10:26;9.30;95.70
42145;DHT22;27813;43.516;11.890;2022-12-18T14:14:53;9.20;95.60
42145;DHT22;27813;43.516;11.890;2022-12-18T14:18:58;9.20;95.70
42145;DHT22;27813;43.516;11.890;2022-12-18T14:23:38;9.20;95.70
42145;DHT22;27813;43.516;11.890;2022-12-18T14:28:15;9.10;95.60
42145;DHT22;27813;43.516;11.890;2022-12-18T14:32:20;9.10;95.70
42145;DHT22;27813;43.516;11.890;2022-12-18T14:36:28;9.00;95.70
42145;DHT22;27813;43.516;11.890;2022-12-18T14:40:33;9.00;95.60
42145;DHT22;27813;43.516;11.890;2022-12-18T14:44:37;9.00;95.70
42145;DHT22;27813;43.516;11.890;2022-12-18T14:53:37;8.80;95.60
42145;DHT22;27813;43.516;11.890;2022-12-18T14:57:43;8.70;95.50
42145;DHT22;27813;43.516;11.890;2022-12-18T15:02:21;8.60;95.40
42145;DHT22;27813;43.516;11.890;2022-12-18T15:21:42;8.40;95.30
42145;DHT22;27813;43.516;11.890;2022-12-18T15:25:48;8.10;95.90
42145;DHT22;27813;43.516;11.890;2022-12-18T15:30:19;8.00;95.50
42145;DHT22;27813;43.516;11.890;2022-12-18T15:34:24;7.80;95.40
42145;DHT22;27813;43.516;11.890;2022-12-18T15:38:30;7.70;95.50
42145;DHT22;27813;43.516;11.890;2022-12-18T15:42:34;7.60;95.30
42145;DHT22;27813;43.516;11.890;2022-12-18T15:46:56;7.50;95.30
42145;DHT22;27813;43.516;11.890;2022-12-18T15:51:01;7.40;95.30
42145;DHT22;27813;43.516;11.890;2022-12-18T15:55:16;7.30;95.40
42145;DHT22;27813;43.516;11.890;2022-12-18T15:59:39;7.20;95.30
42145;DHT22;27813;43.516;11.890;2022-12-18T16:03:42;7.20;95.30
42145;DHT22;27813;43.516;11.890;2022-12-18T16:07:47;7.00;95.20
42145;DHT22;27813;43.516;11.890;2022-12-18T16:11:51;7.00;95.30
42145;DHT22;27813;43.516;11.890;2022-12-18T16:15:55;6.90;95.30
42145;DHT22;27813;43.516;11.890;2022-12-18T16:19:59;6.80;95.30
42145;DHT22;27813;43.516;11.890;2022-12-18T16:24:03;6.80;95.30
42145;DHT22;27813;43.516;11.890;2022-12-18T16:28:07;6.70;95.30
42145;DHT22;27813;43.516;11.890;2022-12-18T16:32:19;6.60;95.20
42145;DHT22;27813;43.516;11.890;2022-12-18T16:36:24;6.60;95.20
42145;DHT22;27813;43.516;11.890;2022-12-18T16:40:32;6.50;95.20
42145;DHT22;27813;43.516;11.890;2022-12-18T16:44:36;6.40;94.90
42145;DHT22;27813;43.516;11.890;2022-12-18T16:48:40;6.40;94.90
42145;DHT22;27813;43.516;11.890;2022-12-18T16:52:44;6.20;94.90
42145;DHT22;27813;43.516;11.890;2022-12-18T16:56:48;6.10;94.90
42145;DHT22;27813;43.516;11.890;2022-12-18T17:00:53;6.00;94.90
42145;DHT22;27813;43.516;11.890;2022-12-18T17:04:58;5.90;94.80
42145;DHT22;27813;43.516;11.890;2022-12-18T17:09:07;5.80;94.80
42145;DHT22;27813;43.516;11.890;2022-12-18T17:13:13;5.70;95.10
42145;DHT22;27813;43.516;11.890;2022-12-18T17:17:42;5.70;94.90
42145;DHT22;27813;43.516;11.890;2022-12-18T17:21:47;5.50;95.10
42145;DHT22;27813;43.516;11.890;2022-12-18T17:25:57;5.50;95.30
42145;DHT22;27813;43.516;11.890;2022-12-18T17:30:05;5.40;95.00
42145;DHT22;27813;43.516;11.890;2022-12-18T17:34:12;5.30;95.20
42145;DHT22;27813;43.516;11.890;2022-12-18T17:38:17;5.30;95.40
42145;DHT22;27813;43.516;11.890;2022-12-18T17:42:22;5.30;95.30
42145;DHT22;27813;43.516;11.890;2022-12-18T17:46:28;5.10;95.30
42145;DHT22;27813;43.516;11.890;2022-12-18T17:50:43;5.00;95.20
42145;DHT22;27813;43.516;11.890;2022-12-18T17:54:48;4.90;95.10
42145;DHT22;27813;43.516;11.890;2022-12-18T17:58:56;4.90;95.50
42145;DHT22;27813;43.516;11.890;2022-12-18T18:03:04;4.90;95.50
42145;DHT22;27813;43.516;11.890;2022-12-18T18:07:09;4.80;95.00
42145;DHT22;27813;43.516;11.890;2022-12-18T18:11:18;4.70;95.10
42145;DHT22;27813;43.516;11.890;2022-12-18T18:15:43;4.70;95.00
42145;DHT22;27813;43.516;11.890;2022-12-18T18:19:49;4.60;95.20
42145;DHT22;27813;43.516;11.890;2022-12-18T18:23:59;4.50;95.30
42145;DHT22;27813;43.516;11.890;2022-12-18T18:28:05;4.50;95.40
42145;DHT22;27813;43.516;11.890;2022-12-18T18:32:09;4.40;95.20
42145;DHT22;27813;43.516;11.890;2022-12-18T18:36:14;4.40;95.30
42145;DHT22;27813;43.516;11.890;2022-12-18T18:40:21;4.40;95.50
42145;DHT22;27813;43.516;11.890;2022-12-18T18:44:31;4.30;95.10
42145;DHT22;27813;43.516;11.890;2022-12-18T18:48:36;4.20;95.20
42145;DHT22;27813;43.516;11.890;2022-12-18T18:52:50;4.10;94.70
42145;DHT22;27813;43.516;11.890;2022-12-18T18:56:58;4.00;94.60
42145;DHT22;27813;43.516;11.890;2022-12-18T19:01:27;3.90;94.80
42145;DHT22;27813;43.516;11.890;2022-12-18T19:05:32;3.90;94.70
42145;DHT22;27813;43.516;11.890;2022-12-18T19:09:37;3.80;94.80
42145;DHT22;27813;43.516;11.890;2022-12-18T19:13:44;3.80;95.10
42145;DHT22;27813;43.516;11.890;2022-12-18T19:17:48;3.70;95.20
42145;DHT22;27813;43.516;11.890;2022-12-18T19:21:53;3.70;95.20
42145;DHT22;27813;43.516;11.890;2022-12-18T19:26:01;3.70;95.20
42145;DHT22;27813;43.516;11.890;2022-12-18T19:30:25;3.60;95.10
42145;DHT22;27813;43.516;11.890;2022-12-18T19:34:32;3.60;95.20
42145;DHT22;27813;43.516;11.890;2022-12-18T19:38:38;3.70;95.40
42145;DHT22;27813;43.516;11.890;2022-12-18T19:42:49;3.70;95.60
42145;DHT22;27813;43.516;11.890;2022-12-18T19:46:58;3.80;95.60
42145;DHT22;27813;43.516;11.890;2022-12-18T19:51:21;3.80;95.50
42145;DHT22;27813;43.516;11.890;2022-12-18T19:55:30;3.70;95.40
42145;DHT22;27813;43.516;11.890;2022-12-18T19:59:39;3.70;95.30
42145;DHT22;27813;43.516;11.890;2022-12-18T20:03:46;3.70;95.30
42145;DHT22;27813;43.516;11.890;2022-12-18T20:07:58;3.60;95.20
42145;DHT22;27813;43.516;11.890;2022-12-18T20:12:07;3.50;95.00
42145;DHT22;27813;43.516;11.890;2022-12-18T20:16:15;3.40;95.00
42145;DHT22;27813;43.516;11.890;2022-12-18T20:20:29;3.40;95.10
42145;DHT22;27813;43.516;11.890;2022-12-18T20:24:37;3.40;95.40
42145;DHT22;27813;43.516;11.890;2022-12-18T20:28:44;3.40;95.40
42145;DHT22;27813;43.516;11.890;2022-12-18T20:32:55;3.30;95.40
42145;DHT22;27813;43.516;11.890;2022-12-18T20:37:05;3.30;95.40
42145;DHT22;27813;43.516;11.890;2022-12-18T20:41:18;3.20;95.20
42145;DHT22;27813;43.516;11.890;2022-12-18T20:45:28;3.10;95.10
42145;DHT22;27813;43.516;11.890;2022-12-18T20:49:35;3.00;95.10
42145;DHT22;27813;43.516;11.890;2022-12-18T20:53:48;3.00;95.20
42145;DHT22;27813;43.516;11.890;2022-12-18T20:57:55;3.00;95.40
42145;DHT22;27813;43.516;11.890;2022-12-18T21:02:01;3.10;95.40
42145;DHT22;27813;43.516;11.890;2022-12-18T21:06:08;3.10;95.60
42145;DHT22;27813;43.516;11.890;2022-12-18T21:10:18;3.10;95.50
42145;DHT22;27813;43.516;11.890;2022-12-18T21:14:28;3.10;95.50
42145;DHT22;27813;43.516;11.890;2022-12-18T21:18:42;3.10;95.40
42145;DHT22;27813;43.516;11.890;2022-12-18T21:22:54;3.00;95.40
42145;DHT22;27813;43.516;11.890;2022-12-18T21:27:23;3.00;95.50
42145;DHT22;27813;43.516;11.890;2022-12-18T21:31:33;2.90;95.40
42145;DHT22;27813;43.516;11.890;2022-12-18T21:35:42;2.90;95.50
42145;DHT22;27813;43.516;11.890;2022-12-18T21:39:47;2.90;95.90
42145;DHT22;27813;43.516;11.890;2022-12-18T21:43:56;3.00;95.90
42145;DHT22;27813;43.516;11.890;2022-12-18T21:48:14;2.90;95.60
42145;DHT22;27813;43.516;11.890;2022-12-18T21:52:21;2.90;95.70
42145;DHT22;27813;43.516;11.890;2022-12-18T21:56:52;2.70;95.20
42145;DHT22;27813;43.516;11.890;2022-12-18T22:00:59;2.50;94.90
42145;DHT22;27813;43.516;11.890;2022-12-18T22:05:04;2.40;94.70
42145;DHT22;27813;43.516;11.890;2022-12-18T22:09:12;2.20;94.60
42145;DHT22;27813;43.516;11.890;2022-12-18T22:13:16;2.20;94.80
42145;DHT22;27813;43.516;11.890;2022-12-18T22:17:22;2.20;95.10
42145;DHT22;27813;43.516;11.890;2022-12-18T22:21:35;2.20;94.90
42145;DHT22;27813;43.516;11.890;2022-12-18T22:25:39;2.10;94.70
42145;DHT22;27813;43.516;11.890;2022-12-18T22:29:44;2.00;94.60
42145;DHT22;27813;43.516;11.890;2022-12-18T22:34:07;2.00;94.60
42145;DHT22;27813;43.516;11.890;2022-12-18T22:38:11;2.00;94.80
42145;DHT22;27813;43.516;11.890;2022-12-18T22:42:15;2.00;95.40
42145;DHT22;27813;43.516;11.890;2022-12-18T22:46:20;2.10;94.80
42145;DHT22;27813;43.516;11.890;2022-12-18T22:50:24;1.90;94.40
42145;DHT22;27813;43.516;11.890;2022-12-18T22:54:28;1.70;94.30
42145;DHT22;27813;43.516;11.890;2022-12-18T22:58:33;1.40;93.90
42145;DHT22;27813;43.516;11.890;2022-12-18T23:02:37;1.30;94.10
42145;DHT22;27813;43.516;11.890;2022-12-18T23:06:43;1.10;94.10
42145;DHT22;27813;43.516;11.890;2022-12-18T23:10:51;1.10;94.40
42145;DHT22;27813;43.516;11.890;2022-12-18T23:14:55;1.10;94.30
42145;DHT22;27813;43.516;11.890;2022-12-18T23:18:59;1.00;94.20
42145;DHT22;27813;43.516;11.890;2022-12-18T23:23:03;0.90;94.30
42145;DHT22;27813;43.516;11.890;2022-12-18T23:27:07;0.80;94.00
42145;DHT22;27813;43.516;11.890;2022-12-18T23:31:25;0.70;94.10
42145;DHT22;27813;43.516;11.890;2022-12-18T23:35:30;0.70;94.40
42145;DHT22;27813;43.516;11.890;2022-12-18T23:39:33;0.80;94.50
42145;DHT22;27813;43.516;11.890;2022-12-18T23:43:37;0.70;94.10
42145;DHT22;27813;43.516;11.890;2022-12-18T23:47:41;0.60;93.90
42145;DHT22;27813;43.516;11.890;2022-12-18T23:51:47;0.60;93.90
42145;DHT22;27813;43.516;11.890;2022-12-18T23:55:50;0.50;94.00
42145;DHT22;27813;43.516;11.890;2022-12-18T23:59:55;0.40;93.90
